Wellton, Arizona
Current Conditions -  °F | °C
As of 10:57 AM on Thursday 18 Dec 2014 (Local Time) from KNYL Reporting Station
Few Clouds Few Clouds  
Wind Chill: 58°   Ceiling: Unl
Heat Index: 58°   Visibility: 10mi
Dew Point: 49°   Wind: 3mph
Humidity: 72%   Direction: 20°NNE
Pressure: 30.18"   Gusts: NA
Location:  32.67°N, 114.15°W
Report Text: KNYL 181757Z 02003KT 10SM FEW100 14/09 A3018 RMK AO2 SLP217 T01440094 51016
Loading
Personal Weather Stations






























Interactive Weather Map New forecast layout! Learn more

10-Day Weather Forecast

Advertisements
Track Severe Weather on mobile